createdAt,value
2017-06-09T00:02:24.706Z,73.93
2017-06-09T00:04:51.203Z,73.36
2017-06-09T00:07:17.526Z,72.52
2017-06-09T00:09:43.864Z,74.31
2017-06-09T00:12:10.204Z,74.69
2017-06-09T00:14:36.561Z,74.17
2017-06-09T00:17:02.976Z,75.75
2017-06-09T00:19:29.325Z,75.57
2017-06-09T00:21:55.700Z,74.99
2017-06-09T00:24:22.027Z,73.07
2017-06-09T00:26:48.441Z,74.83
2017-06-09T00:29:14.776Z,75.02
2017-06-09T00:31:41.124Z,75.39
2017-06-09T00:34:07.461Z,76.94
2017-06-09T00:36:33.770Z,75.21
2017-06-09T00:39:00.071Z,76.08
2017-06-09T00:41:26.374Z,72.81
2017-06-09T00:43:52.678Z,73.42
2017-06-09T00:46:19.000Z,73.67
2017-06-09T00:48:45.330Z,75.29
2017-06-09T00:51:11.663Z,73.99
2017-06-09T00:53:37.975Z,75.62
2017-06-09T00:56:04.388Z,73.24
2017-06-09T00:58:30.690Z,77.94
2017-06-09T01:00:57.010Z,76.72
2017-06-09T01:03:23.344Z,75.44
2017-06-09T01:05:49.688Z,77.12
2017-06-09T01:08:16.028Z,75.82
2017-06-09T01:10:42.352Z,71.57
2017-06-09T01:13:08.694Z,75.34
2017-06-09T01:15:35.076Z,74.24
2017-06-09T01:18:01.426Z,73.61
2017-06-09T01:20:27.759Z,74.38
2017-06-09T01:22:54.103Z,72.04
2017-06-09T01:25:20.424Z,74.15
2017-06-09T01:27:46.746Z,73.32
2017-06-09T01:30:13.087Z,73.35
2017-06-09T01:32:39.478Z,74.03
2017-06-09T01:35:05.822Z,74.71
2017-06-09T01:37:32.197Z,74.50
2017-06-09T01:39:58.560Z,75.91
2017-06-09T01:42:25.006Z,74.23
2017-06-09T01:44:51.361Z,70.96
2017-06-09T01:47:17.691Z,75.79
2017-06-09T01:49:44.076Z,75.50
2017-06-09T01:52:10.419Z,74.36
2017-06-09T01:54:36.767Z,73.16
2017-06-09T01:57:03.156Z,76.45
2017-06-09T01:59:29.517Z,72.00
2017-06-09T02:01:55.862Z,73.25
2017-06-09T02:04:22.233Z,73.63
2017-06-09T02:06:48.561Z,71.50
2017-06-09T02:09:14.887Z,72.64
2017-06-09T02:11:41.297Z,72.09
2017-06-09T02:14:07.632Z,71.88
2017-06-09T02:16:33.972Z,74.91
2017-06-09T02:19:00.350Z,72.50
2017-06-09T02:21:26.684Z,74.26
2017-06-09T02:23:52.997Z,74.36
2017-06-09T02:26:19.329Z,75.06
2017-06-09T02:28:45.665Z,74.61
2017-06-09T02:31:12.090Z,69.34
2017-06-09T02:33:38.486Z,71.58
2017-06-09T02:36:04.828Z,73.80
2017-06-09T02:38:31.176Z,73.70
2017-06-09T02:40:57.481Z,71.36
2017-06-09T02:43:23.799Z,73.29
2017-06-09T02:45:50.126Z,73.35
2017-06-09T02:48:16.522Z,72.35
2017-06-09T02:50:42.835Z,71.49
2017-06-09T02:53:09.157Z,73.67
2017-06-09T02:55:35.525Z,72.01
2017-06-09T02:58:01.911Z,73.35
2017-06-09T03:00:28.261Z,71.44
2017-06-09T03:02:54.625Z,72.33
2017-06-09T03:05:21.002Z,73.21
2017-06-09T03:07:47.369Z,69.83
2017-06-09T03:10:13.728Z,71.95
2017-06-09T03:12:40.050Z,68.95
2017-06-09T03:15:06.406Z,68.44
2017-06-09T03:17:32.781Z,68.08
2017-06-09T03:19:59.139Z,69.62
2017-06-09T03:22:25.473Z,70.05
2017-06-09T03:24:51.813Z,67.68
2017-06-09T03:27:18.152Z,70.14
2017-06-09T03:29:44.467Z,68.46
2017-06-09T03:32:26.668Z,69.59
2017-06-09T03:34:53.001Z,68.35
2017-06-09T03:37:19.333Z,67.20
2017-06-09T03:39:45.720Z,67.75
2017-06-09T03:42:12.062Z,64.58
2017-06-09T03:44:38.363Z,64.31
2017-06-09T03:47:04.689Z,64.29
2017-06-09T03:49:31.022Z,64.85
2017-06-09T03:51:57.337Z,65.07
2017-06-09T03:54:23.655Z,64.75
2017-06-09T03:56:49.962Z,64.41
2017-06-09T03:59:16.311Z,64.11
2017-06-09T04:01:42.650Z,63.07
2017-06-09T04:04:08.970Z,62.92
2017-06-09T04:06:35.273Z,64.33
2017-06-09T04:09:01.606Z,62.95
2017-06-09T04:11:28.034Z,63.59
2017-06-09T04:13:54.363Z,63.25
2017-06-09T04:16:20.786Z,64.87
2017-06-09T04:18:47.140Z,68.05
2017-06-09T04:21:13.463Z,68.21
2017-06-09T04:23:39.816Z,68.09
2017-06-09T04:26:06.156Z,68.55
2017-06-09T04:28:32.474Z,67.35
2017-06-09T04:30:58.822Z,65.27
2017-06-09T04:33:25.169Z,66.36
2017-06-09T04:35:51.499Z,65.83
2017-06-09T04:38:17.854Z,66.35
2017-06-09T04:40:44.265Z,67.30
2017-06-09T04:43:10.586Z,66.96
2017-06-09T04:45:36.940Z,68.21
2017-06-09T04:48:03.277Z,68.56
2017-06-09T04:50:29.606Z,63.04
2017-06-09T04:52:55.914Z,62.76
2017-06-09T04:55:22.269Z,63.35
2017-06-09T04:57:48.612Z,62.85
2017-06-09T05:00:14.929Z,62.34
2017-06-09T05:02:42.283Z,61.70
2017-06-09T05:05:08.586Z,62.87
2017-06-09T05:07:34.903Z,61.92
2017-06-09T05:10:01.222Z,62.12
2017-06-09T05:12:27.561Z,64.93
2017-06-09T05:14:53.905Z,61.02
2017-06-09T05:17:20.235Z,65.98
2017-06-09T05:19:46.542Z,66.80
2017-06-09T05:22:27.742Z,66.46
2017-06-09T05:24:59.125Z,64.79
2017-06-09T05:27:25.483Z,67.11
2017-06-09T05:29:51.882Z,65.44
2017-06-09T05:32:19.193Z,63.41
2017-06-09T05:34:45.530Z,64.80
2017-06-09T05:37:12.524Z,62.66
2017-06-09T05:39:38.882Z,62.35
2017-06-09T05:42:05.273Z,66.36
2017-06-09T05:44:31.606Z,63.00
2017-06-09T05:46:57.949Z,63.73
2017-06-09T05:49:24.324Z,64.26
2017-06-09T05:51:50.695Z,68.50
2017-06-09T05:54:17.037Z,64.47
2017-06-09T05:56:43.349Z,66.76
2017-06-09T05:59:09.650Z,66.58
2017-06-09T06:01:35.954Z,64.55
2017-06-09T06:04:02.283Z,63.20
2017-06-09T06:06:28.637Z,62.46
2017-06-09T06:08:54.990Z,58.72
2017-06-09T06:11:22.406Z,56.92
2017-06-09T06:13:48.725Z,57.42
2017-06-09T06:16:15.039Z,56.87
2017-06-09T06:18:41.425Z,57.06
2017-06-09T06:21:07.838Z,58.69
2017-06-09T06:23:34.161Z,56.35
2017-06-09T06:26:00.495Z,55.49
2017-06-09T06:28:26.840Z,55.87
2017-06-09T06:30:53.175Z,55.27
2017-06-09T06:33:19.519Z,56.72
2017-06-09T06:35:45.847Z,54.96
2017-06-09T06:38:12.193Z,55.21
2017-06-09T06:40:38.520Z,54.33
2017-06-09T06:43:04.887Z,54.33
2017-06-09T06:45:31.247Z,54.48
2017-06-09T06:47:57.577Z,55.52
2017-06-09T06:50:23.915Z,56.16
2017-06-09T06:52:50.262Z,56.41
2017-06-09T06:55:16.616Z,56.19
2017-06-09T06:57:42.942Z,54.68
2017-06-09T07:00:09.342Z,57.99
2017-06-09T07:02:35.674Z,53.77
2017-06-09T07:05:02.006Z,54.49
2017-06-09T07:07:28.380Z,55.42
2017-06-09T07:09:54.728Z,54.67
2017-06-09T07:12:21.097Z,54.90
2017-06-09T07:14:47.474Z,54.58
2017-06-09T07:17:13.800Z,54.42
2017-06-09T07:19:40.128Z,54.70
2017-06-09T07:22:06.458Z,56.30
2017-06-09T07:24:32.854Z,56.79
2017-06-09T07:26:59.195Z,54.44
2017-06-09T07:29:25.548Z,55.27
2017-06-09T07:31:51.882Z,54.51
2017-06-09T07:34:18.226Z,54.10
2017-06-09T07:36:44.559Z,55.37
2017-06-09T07:39:10.899Z,54.67
2017-06-09T07:41:37.225Z,54.81
2017-06-09T07:44:03.584Z,54.03
2017-06-09T07:46:29.948Z,54.18
2017-06-09T07:48:56.305Z,53.96
2017-06-09T07:51:22.677Z,53.67
2017-06-09T07:53:49.051Z,53.61
2017-06-09T07:56:15.394Z,54.10
2017-06-09T07:58:41.702Z,54.56
2017-06-09T08:01:08.052Z,55.51
2017-06-09T08:03:34.394Z,55.26
2017-06-09T08:06:00.731Z,56.05
2017-06-09T08:08:27.079Z,57.05
2017-06-09T08:10:53.496Z,55.31
2017-06-09T08:13:19.848Z,56.09
2017-06-09T08:15:51.143Z,55.66
2017-06-09T08:18:22.202Z,55.44
2017-06-09T08:20:52.332Z,55.67
2017-06-09T08:23:23.043Z,57.18
2017-06-09T08:25:54.209Z,56.94
2017-06-09T08:44:47.121Z,58.21
2017-06-09T08:47:13.591Z,57.45
2017-06-09T08:49:39.947Z,57.37
2017-06-09T08:52:10.099Z,57.80
2017-06-09T08:54:41.840Z,56.96
2017-06-09T08:57:13.848Z,56.21
2017-06-09T08:59:45.285Z,56.51
2017-06-09T09:02:16.763Z,57.59
2017-06-09T09:04:47.978Z,58.03
2017-06-09T09:07:17.987Z,57.69
2017-06-09T09:09:47.981Z,59.24
2017-06-09T09:12:18.646Z,57.42
2017-06-09T09:14:48.511Z,57.66
2017-06-09T09:17:18.393Z,60.68
2017-06-09T09:19:50.304Z,61.75
2017-06-09T09:22:21.068Z,62.03
2017-06-09T09:24:51.198Z,63.43
2017-06-09T09:27:24.621Z,66.07
2017-06-09T09:29:54.438Z,65.32
2017-06-09T09:32:25.326Z,67.40
2017-06-09T09:34:56.688Z,68.80
2017-06-09T09:37:27.462Z,66.55
2017-06-09T09:39:59.495Z,70.12
2017-06-09T09:42:29.383Z,68.69
2017-06-09T09:44:55.883Z,70.57
2017-06-09T09:47:22.723Z,72.47
2017-06-09T09:49:49.220Z,69.86
2017-06-09T09:52:15.555Z,68.89
2017-06-09T09:54:41.894Z,70.86
2017-06-09T09:57:08.877Z,70.21
2017-06-09T09:59:35.514Z,70.31
2017-06-09T10:02:01.919Z,72.56
2017-06-09T10:04:28.237Z,70.03
2017-06-09T10:06:54.688Z,71.04
2017-06-09T10:09:21.035Z,71.87
2017-06-09T10:11:47.365Z,71.49
2017-06-09T10:14:13.683Z,71.77
2017-06-09T10:16:40.027Z,71.75
2017-06-09T10:19:10.336Z,72.80
2017-06-09T10:21:36.804Z,72.03
2017-06-09T10:24:03.246Z,73.84
2017-06-09T10:26:29.843Z,73.17
2017-06-09T10:28:56.149Z,76.47
2017-06-09T10:31:22.502Z,75.75
2017-06-09T10:33:48.852Z,77.44
2017-06-09T10:36:15.161Z,75.06
2017-06-09T10:38:41.521Z,75.33
2017-06-09T10:41:07.859Z,75.59
2017-06-09T10:43:34.177Z,78.03
2017-06-09T10:46:00.494Z,76.38
2017-06-09T10:48:26.950Z,77.59
2017-06-09T10:50:53.332Z,76.52
2017-06-09T10:53:19.764Z,76.26
2017-06-09T10:55:46.083Z,76.30
2017-06-09T10:58:12.897Z,77.57
2017-06-09T11:00:39.309Z,75.56
2017-06-09T11:03:05.651Z,77.78
2017-06-09T11:05:31.957Z,76.86
2017-06-09T11:07:58.744Z,77.41
2017-06-09T11:10:25.511Z,77.75
2017-06-09T11:12:52.517Z,77.26
2017-06-09T11:15:19.235Z,76.63
2017-06-09T11:17:45.658Z,76.83
2017-06-09T11:20:12.838Z,76.69
2017-06-09T11:22:39.349Z,77.24
2017-06-09T11:25:05.699Z,76.81
2017-06-09T11:27:32.049Z,76.63
2017-06-09T11:29:58.397Z,76.60
2017-06-09T11:32:24.801Z,76.68
2017-06-09T11:34:51.137Z,77.93
2017-06-09T11:37:17.495Z,79.59
2017-06-09T11:39:43.891Z,76.27
2017-06-09T11:42:10.269Z,76.64
2017-06-09T11:44:36.644Z,75.40
2017-06-09T11:47:03.004Z,79.29
2017-06-09T11:49:29.417Z,76.92
2017-06-09T11:51:55.785Z,76.39
2017-06-09T11:54:22.162Z,76.70
2017-06-09T11:56:48.470Z,76.53
2017-06-09T11:59:14.843Z,76.65
2017-06-09T12:01:41.273Z,76.21
2017-06-09T12:04:07.593Z,77.14
2017-06-09T12:06:33.900Z,78.44
2017-06-09T12:09:00.240Z,76.53
2017-06-09T12:11:26.697Z,76.63
2017-06-09T12:13:53.053Z,76.37
2017-06-09T12:16:19.382Z,76.54
2017-06-09T12:18:45.717Z,78.84
2017-06-09T12:21:12.156Z,77.08
2017-06-09T12:23:38.478Z,76.99
2017-06-09T12:26:04.917Z,77.97
2017-06-09T12:28:31.227Z,76.98
2017-06-09T12:30:57.617Z,77.38
2017-06-09T12:33:23.960Z,80.15
2017-06-09T12:35:50.289Z,78.87
2017-06-09T12:38:16.602Z,77.38
2017-06-09T12:40:42.950Z,75.89
2017-06-09T12:43:09.285Z,77.67
2017-06-09T12:45:35.620Z,78.21
2017-06-09T12:48:02.046Z,77.93
2017-06-09T12:50:28.348Z,77.40
2017-06-09T12:52:54.684Z,78.00
2017-06-09T12:55:21.031Z,77.77
2017-06-09T12:57:47.394Z,77.77
2017-06-09T13:00:13.721Z,76.18
2017-06-09T13:02:40.483Z,75.48
2017-06-09T13:05:06.835Z,75.09
2017-06-09T13:07:33.201Z,75.08
2017-06-09T13:09:59.521Z,74.30
2017-06-09T13:12:25.861Z,75.33
2017-06-09T13:14:52.180Z,74.80
2017-06-09T13:17:18.549Z,73.91
2017-06-09T13:19:44.879Z,74.78
2017-06-09T13:22:11.221Z,73.15
2017-06-09T13:24:37.579Z,71.66
2017-06-09T13:27:03.903Z,72.94
2017-06-09T13:29:30.229Z,72.92
2017-06-09T13:31:56.596Z,72.92
2017-06-09T13:34:22.913Z,72.15
2017-06-09T13:36:49.221Z,70.84
2017-06-09T13:39:15.564Z,72.31
2017-06-09T13:41:41.887Z,70.47
2017-06-09T13:44:08.224Z,69.79
2017-06-09T13:46:34.578Z,68.67
2017-06-09T13:49:00.890Z,67.80
2017-06-09T13:51:27.220Z,69.16
2017-06-09T13:53:53.540Z,67.90
2017-06-09T13:56:19.872Z,67.38
2017-06-09T13:58:46.186Z,67.99
2017-06-09T14:01:12.536Z,67.08
2017-06-09T14:03:38.977Z,65.51
2017-06-09T14:06:05.298Z,66.93
2017-06-09T14:08:31.644Z,66.85
2017-06-09T14:10:57.994Z,67.90
2017-06-09T14:13:24.340Z,67.06
2017-06-09T14:15:50.681Z,67.92
2017-06-09T14:18:17.080Z,71.17
2017-06-09T14:20:43.433Z,74.40
2017-06-09T14:23:09.843Z,73.17
2017-06-09T14:25:36.957Z,74.95
2017-06-09T14:28:03.919Z,74.23
2017-06-09T14:30:30.253Z,73.70
2017-06-09T14:32:56.699Z,75.73
2017-06-09T14:35:23.048Z,74.80
2017-06-09T14:37:49.412Z,74.38
2017-06-09T14:40:15.808Z,73.10
2017-06-09T14:42:42.129Z,75.27
2017-06-09T14:45:08.430Z,74.24
2017-06-09T14:47:34.902Z,73.90
2017-06-09T14:50:01.255Z,72.26
2017-06-09T14:52:27.569Z,71.03
2017-06-09T14:54:53.916Z,71.93
2017-06-09T14:57:20.326Z,69.80
2017-06-09T14:59:46.668Z,70.57
2017-06-09T15:02:13.010Z,70.41
2017-06-09T15:04:39.343Z,67.65
2017-06-09T15:07:05.794Z,68.00
2017-06-09T15:09:32.094Z,66.62
2017-06-09T15:11:58.434Z,66.68
2017-06-09T15:14:24.771Z,63.34
2017-06-09T15:16:51.088Z,61.94
2017-06-09T15:19:17.426Z,61.69
2017-06-09T15:21:43.808Z,61.57
2017-06-09T15:24:10.169Z,61.19
2017-06-09T15:26:36.529Z,60.05
2017-06-09T15:29:02.861Z,59.66
2017-06-09T15:31:29.197Z,58.09
2017-06-09T15:33:55.545Z,58.48
2017-06-09T15:36:21.898Z,57.92
2017-06-09T15:38:48.221Z,56.38
2017-06-09T15:41:14.550Z,53.50
2017-06-09T15:43:40.976Z,59.66
2017-06-09T15:46:07.386Z,54.36
2017-06-09T15:48:33.722Z,54.33
2017-06-09T15:51:00.036Z,53.96
2017-06-09T15:53:26.418Z,51.40
2017-06-09T15:55:52.731Z,49.48
2017-06-09T15:58:19.068Z,52.36
2017-06-09T16:00:45.399Z,50.18
2017-06-09T16:03:12.465Z,48.13
2017-06-09T16:05:38.835Z,48.45
2017-06-09T16:08:05.184Z,49.43
2017-06-09T16:10:32.581Z,50.06
2017-06-09T16:12:58.890Z,47.07
2017-06-09T16:15:25.220Z,48.99
2017-06-09T16:17:51.565Z,45.85
2017-06-09T16:20:17.883Z,47.32
2017-06-09T16:22:44.218Z,45.86
2017-06-09T16:25:10.527Z,48.01
2017-06-09T16:27:36.882Z,49.47
2017-06-09T16:30:03.213Z,45.56
2017-06-09T16:32:29.534Z,47.25
2017-06-09T16:34:55.872Z,48.12
2017-06-09T16:37:22.234Z,47.23
2017-06-09T16:39:48.561Z,46.77
2017-06-09T16:42:14.896Z,44.49
2017-06-09T16:44:41.267Z,46.58
2017-06-09T16:47:07.633Z,46.12
2017-06-09T16:49:33.955Z,44.99
2017-06-09T16:52:00.320Z,46.06
2017-06-09T16:54:26.646Z,45.22
2017-06-09T16:56:52.964Z,42.15
2017-06-09T16:59:19.337Z,43.87
2017-06-09T17:01:45.658Z,48.26
2017-06-09T17:04:11.990Z,44.58
2017-06-09T17:06:38.326Z,43.11
2017-06-09T17:09:04.658Z,41.96
2017-06-09T17:11:31.014Z,43.46
2017-06-09T17:13:57.344Z,44.08
2017-06-09T17:16:23.723Z,44.38
2017-06-09T17:18:50.071Z,44.77
2017-06-09T17:21:16.384Z,42.58
2017-06-09T17:23:42.743Z,42.65
2017-06-09T17:26:09.094Z,44.41
2017-06-09T17:28:35.436Z,46.79
2017-06-09T17:31:01.808Z,46.85
2017-06-09T17:33:29.023Z,45.60
2017-06-09T17:35:55.378Z,45.09
2017-06-09T17:38:21.713Z,46.65
2017-06-09T17:40:48.046Z,45.46
2017-06-09T17:43:14.395Z,47.02
2017-06-09T17:45:40.735Z,46.01
2017-06-09T17:48:07.071Z,45.87
2017-06-09T17:50:33.439Z,47.18
2017-06-09T17:52:59.818Z,45.68
2017-06-09T17:55:26.161Z,46.25
2017-06-09T17:57:52.497Z,45.97
2017-06-09T18:00:18.804Z,45.84
2017-06-09T18:02:45.193Z,44.92
2017-06-09T18:05:12.706Z,45.39
2017-06-09T18:07:39.072Z,46.30
2017-06-09T18:10:05.399Z,46.14
2017-06-09T18:12:31.757Z,48.11
2017-06-09T18:14:58.110Z,48.00
2017-06-09T18:17:25.140Z,46.19
2017-06-09T18:19:51.723Z,47.36
2017-06-09T18:22:18.074Z,47.57
2017-06-09T18:24:44.387Z,46.83
2017-06-09T18:27:10.792Z,46.49
2017-06-09T18:29:37.101Z,48.04
2017-06-09T18:32:03.452Z,47.54
2017-06-09T18:34:29.801Z,49.79
2017-06-09T18:36:56.131Z,48.66
2017-06-09T18:39:22.460Z,48.43
2017-06-09T18:41:48.807Z,48.59
2017-06-09T18:44:15.157Z,50.46
2017-06-09T18:46:41.537Z,49.39
2017-06-09T18:49:07.920Z,49.52
2017-06-09T18:51:34.266Z,51.00
2017-06-09T18:54:00.681Z,51.36
2017-06-09T18:56:27.279Z,51.59
2017-06-09T18:58:53.626Z,51.49
2017-06-09T19:01:20.018Z,51.44
2017-06-09T19:03:46.549Z,53.88
2017-06-09T19:06:12.905Z,53.75
2017-06-09T19:08:39.325Z,55.67
2017-06-09T19:11:05.693Z,54.92
2017-06-09T19:16:03.541Z,58.21
2017-06-09T19:18:29.872Z,57.49
2017-06-09T19:20:56.249Z,59.50
2017-06-09T19:23:22.666Z,60.45
2017-06-09T19:25:49.010Z,59.02
2017-06-09T19:28:15.337Z,61.65
2017-06-09T19:30:41.686Z,63.34
2017-06-09T19:33:08.032Z,60.85
2017-06-09T19:35:34.362Z,62.34
2017-06-09T19:38:00.725Z,63.17
2017-06-09T19:40:27.073Z,58.43
2017-06-09T19:42:53.450Z,63.09
2017-06-09T19:45:19.978Z,61.91
2017-06-09T19:47:46.357Z,60.75
2017-06-09T19:50:13.082Z,59.17
2017-06-09T19:52:39.457Z,59.02
2017-06-09T19:55:05.796Z,59.41
2017-06-09T19:57:32.189Z,58.89
2017-06-09T19:59:58.523Z,59.82
2017-06-09T20:05:08.446Z,59.33
2017-06-09T20:07:34.834Z,61.33
2017-06-09T20:10:01.170Z,64.45
2017-06-09T20:12:27.529Z,65.63
2017-06-09T20:14:53.907Z,65.97
2017-06-09T20:17:20.230Z,70.02
2017-06-09T20:19:46.557Z,72.27
2017-06-09T20:22:13.017Z,71.47
2017-06-09T20:24:39.667Z,71.39
2017-06-09T20:27:06.010Z,69.04
2017-06-09T20:29:32.416Z,69.18
2017-06-09T20:31:58.781Z,67.55
2017-06-09T20:34:28.311Z,63.40
2017-06-09T20:36:56.649Z,62.64
2017-06-09T20:39:23.186Z,62.40
2017-06-09T20:41:49.544Z,64.43
2017-06-09T20:44:15.907Z,63.12
2017-06-09T20:46:42.737Z,63.11
2017-06-09T20:49:09.368Z,70.23
2017-06-09T20:51:36.432Z,64.40
2017-06-09T20:54:02.821Z,63.59
2017-06-09T20:56:29.165Z,63.31
2017-06-09T20:58:55.494Z,67.19
2017-06-09T21:01:21.802Z,68.45
2017-06-09T21:03:48.193Z,68.67
2017-06-09T21:06:14.587Z,64.56
2017-06-09T21:08:41.002Z,72.24
2017-06-09T21:11:07.573Z,71.25
2017-06-09T21:13:34.440Z,67.70
2017-06-09T21:16:00.914Z,68.46
2017-06-09T21:18:27.337Z,76.13
2017-06-09T21:20:53.702Z,69.81
2017-06-09T21:23:20.040Z,75.03
2017-06-09T21:25:46.350Z,70.42
2017-06-09T21:28:12.687Z,70.35
2017-06-09T21:30:39.053Z,66.44
2017-06-09T21:33:05.964Z,65.85
2017-06-09T21:35:32.332Z,65.55
2017-06-09T21:37:58.675Z,64.59
2017-06-09T21:40:25.023Z,67.10
2017-06-09T21:42:51.372Z,66.67
2017-06-09T21:45:17.713Z,66.27
2017-06-09T21:47:44.037Z,65.59
2017-06-09T21:50:10.779Z,65.20
2017-06-09T21:52:37.099Z,65.64
2017-06-09T21:55:03.462Z,67.67
2017-06-09T21:57:29.792Z,67.49
2017-06-09T21:59:56.193Z,70.96
2017-06-09T22:02:23.268Z,67.94
2017-06-09T22:04:49.675Z,65.95
2017-06-09T22:07:16.030Z,71.38
2017-06-09T22:09:42.359Z,72.78
2017-06-09T22:12:08.725Z,68.91
2017-06-09T22:14:35.128Z,66.46
2017-06-09T22:17:03.112Z,65.41
2017-06-09T22:19:36.587Z,71.08
2017-06-09T22:22:02.928Z,75.11
2017-06-09T22:24:29.246Z,79.15
2017-06-09T22:26:55.946Z,80.50
2017-06-09T22:29:22.279Z,74.45
2017-06-09T22:31:48.622Z,70.47
2017-06-09T22:34:14.963Z,67.74
2017-06-09T22:36:41.353Z,66.97
2017-06-09T22:39:07.723Z,67.03
2017-06-09T22:41:34.068Z,71.16
2017-06-09T22:44:00.424Z,76.41
2017-06-09T22:46:26.798Z,75.50
2017-06-09T22:48:53.150Z,79.31
2017-06-09T22:51:19.536Z,78.08
2017-06-09T22:53:45.913Z,77.04
2017-06-09T22:56:12.243Z,75.17
2017-06-09T22:58:38.581Z,80.08
2017-06-09T23:01:04.921Z,77.87
2017-06-09T23:03:31.250Z,79.42
2017-06-09T23:05:57.574Z,81.45
2017-06-09T23:08:23.910Z,71.28
2017-06-09T23:10:50.240Z,70.14
2017-06-09T23:13:16.575Z,68.94
2017-06-09T23:15:42.905Z,68.56
2017-06-09T23:18:09.234Z,68.07
2017-06-09T23:20:35.616Z,67.76
2017-06-09T23:23:02.027Z,71.81
2017-06-09T23:25:34.306Z,68.64
2017-06-09T23:28:06.540Z,74.62
2017-06-09T23:30:33.048Z,79.99
2017-06-09T23:32:59.444Z,80.89
2017-06-09T23:35:28.769Z,81.71
2017-06-09T23:37:55.119Z,79.70
2017-06-09T23:40:21.473Z,81.50
2017-06-09T23:42:48.738Z,81.72
2017-06-09T23:45:15.078Z,82.37
2017-06-09T23:47:42.372Z,80.05
2017-06-09T23:50:08.864Z,77.07
2017-06-09T23:52:42.152Z,78.77
2017-06-09T23:55:09.352Z,70.96
2017-06-09T23:57:36.148Z,69.88
